sensor_id;sensor_type;location;lat;lon;timestamp;temperature;humidity
47805;DHT22;33568;45.286;9.900;2023-04-03T00:01:43;14.30;67.80
47805;DHT22;33568;45.286;9.900;2023-04-03T00:04:09;14.10;68.60
47805;DHT22;33568;45.286;9.900;2023-04-03T00:06:36;13.90;70.30
47805;DHT22;33568;45.286;9.900;2023-04-03T00:09:03;13.90;68.90
47805;DHT22;33568;45.286;9.900;2023-04-03T00:11:29;13.90;69.30
47805;DHT22;33568;45.286;9.900;2023-04-03T00:13:55;13.80;71.30
47805;DHT22;33568;45.286;9.900;2023-04-03T00:16:22;13.80;69.40
47805;DHT22;33568;45.286;9.900;2023-04-03T00:18:48;13.70;71.60
47805;DHT22;33568;45.286;9.900;2023-04-03T00:21:15;13.80;69.70
47805;DHT22;33568;45.286;9.900;2023-04-03T00:23:41;13.80;69.90
47805;DHT22;33568;45.286;9.900;2023-04-03T00:26:08;13.80;70.10
47805;DHT22;33568;45.286;9.900;2023-04-03T00:28:34;13.80;70.20
47805;DHT22;33568;45.286;9.900;2023-04-03T00:31:01;13.80;70.40
47805;DHT22;33568;45.286;9.900;2023-04-03T00:33:28;13.90;70.70
47805;DHT22;33568;45.286;9.900;2023-04-03T00:35:55;13.90;70.80
47805;DHT22;33568;45.286;9.900;2023-04-03T00:38:21;13.80;71.00
47805;DHT22;33568;45.286;9.900;2023-04-03T00:40:48;13.80;71.20
47805;DHT22;33568;45.286;9.900;2023-04-03T00:43:21;13.80;71.20
47805;DHT22;33568;45.286;9.900;2023-04-03T00:45:50;13.70;72.00
47805;DHT22;33568;45.286;9.900;2023-04-03T00:48:31;13.70;71.60
47805;DHT22;33568;45.286;9.900;2023-04-03T00:50:59;13.70;71.80
47805;DHT22;33568;45.286;9.900;2023-04-03T00:53:31;13.60;71.70
47805;DHT22;33568;45.286;9.900;2023-04-03T00:55:58;13.60;72.00
47805;DHT22;33568;45.286;9.900;2023-04-03T00:59:08;13.60;72.10
47805;DHT22;33568;45.286;9.900;2023-04-03T01:01:33;13.60;72.50
47805;DHT22;33568;45.286;9.900;2023-04-03T01:04:01;13.50;72.20
47805;DHT22;33568;45.286;9.900;2023-04-03T01:06:32;13.50;72.50
47805;DHT22;33568;45.286;9.900;2023-04-03T01:09:05;13.50;72.70
47805;DHT22;33568;45.286;9.900;2023-04-03T01:11:32;13.40;72.80
47805;DHT22;33568;45.286;9.900;2023-04-03T01:14:01;13.40;72.80
47805;DHT22;33568;45.286;9.900;2023-04-03T01:16:29;13.40;72.90
47805;DHT22;33568;45.286;9.900;2023-04-03T01:18:59;13.30;73.10
47805;DHT22;33568;45.286;9.900;2023-04-03T01:24:35;13.30;74.10
47805;DHT22;33568;45.286;9.900;2023-04-03T01:27:06;13.20;73.80
47805;DHT22;33568;45.286;9.900;2023-04-03T01:29:34;13.20;73.70
47805;DHT22;33568;45.286;9.900;2023-04-03T01:32:02;13.20;73.80
47805;DHT22;33568;45.286;9.900;2023-04-03T01:34:31;13.10;74.00
47805;DHT22;33568;45.286;9.900;2023-04-03T01:36:58;13.10;74.20
47805;DHT22;33568;45.286;9.900;2023-04-03T01:39:25;13.10;74.30
47805;DHT22;33568;45.286;9.900;2023-04-03T01:41:51;13.10;74.30
47805;DHT22;33568;45.286;9.900;2023-04-03T01:44:28;13.10;74.50
47805;DHT22;33568;45.286;9.900;2023-04-03T01:46:55;13.10;74.50
47805;DHT22;33568;45.286;9.900;2023-04-03T01:49:23;13.10;74.50
47805;DHT22;33568;45.286;9.900;2023-04-03T01:51:50;13.10;74.70
47805;DHT22;33568;45.286;9.900;2023-04-03T01:54:17;13.10;75.00
47805;DHT22;33568;45.286;9.900;2023-04-03T01:56:44;13.00;75.00
47805;DHT22;33568;45.286;9.900;2023-04-03T01:59:10;13.00;75.30
47805;DHT22;33568;45.286;9.900;2023-04-03T02:01:37;12.90;76.70
47805;DHT22;33568;45.286;9.900;2023-04-03T02:04:04;12.90;75.30
47805;DHT22;33568;45.286;9.900;2023-04-03T02:06:30;12.80;75.50
47805;DHT22;33568;45.286;9.900;2023-04-03T02:08:57;12.80;75.70
47805;DHT22;33568;45.286;9.900;2023-04-03T02:11:23;12.80;75.80
47805;DHT22;33568;45.286;9.900;2023-04-03T02:13:50;12.70;76.70
47805;DHT22;33568;45.286;9.900;2023-04-03T02:16:16;12.80;75.70
47805;DHT22;33568;45.286;9.900;2023-04-03T02:18:43;12.70;76.60
47805;DHT22;33568;45.286;9.900;2023-04-03T02:21:09;12.70;75.60
47805;DHT22;33568;45.286;9.900;2023-04-03T02:23:36;12.70;75.80
47805;DHT22;33568;45.286;9.900;2023-04-03T02:26:08;12.60;77.40
47805;DHT22;33568;45.286;9.900;2023-04-03T02:28:36;12.60;76.20
47805;DHT22;33568;45.286;9.900;2023-04-03T02:31:03;12.60;76.20
47805;DHT22;33568;45.286;9.900;2023-04-03T02:33:31;12.60;76.40
47805;DHT22;33568;45.286;9.900;2023-04-03T02:35:58;12.50;76.50
47805;DHT22;33568;45.286;9.900;2023-04-03T02:38:25;12.50;76.60
47805;DHT22;33568;45.286;9.900;2023-04-03T02:40:53;12.50;76.80
47805;DHT22;33568;45.286;9.900;2023-04-03T02:43:19;12.50;76.80
47805;DHT22;33568;45.286;9.900;2023-04-03T02:45:46;12.40;78.30
47805;DHT22;33568;45.286;9.900;2023-04-03T02:48:12;12.40;77.10
47805;DHT22;33568;45.286;9.900;2023-04-03T02:50:41;12.40;77.20
47805;DHT22;33568;45.286;9.900;2023-04-03T02:53:07;12.40;77.30
47805;DHT22;33568;45.286;9.900;2023-04-03T02:55:34;12.30;77.50
47805;DHT22;33568;45.286;9.900;2023-04-03T02:58:01;12.30;78.70
47805;DHT22;33568;45.286;9.900;2023-04-03T03:00:27;12.30;77.50
47805;DHT22;33568;45.286;9.900;2023-04-03T03:02:54;12.20;79.40
47805;DHT22;33568;45.286;9.900;2023-04-03T03:05:20;12.20;77.30
47805;DHT22;33568;45.286;9.900;2023-04-03T03:07:47;12.20;77.50
47805;DHT22;33568;45.286;9.900;2023-04-03T03:10:14;12.20;77.70
47805;DHT22;33568;45.286;9.900;2023-04-03T03:12:41;12.20;77.90
47805;DHT22;33568;45.286;9.900;2023-04-03T03:15:08;12.20;78.00
47805;DHT22;33568;45.286;9.900;2023-04-03T03:17:35;12.20;78.00
47805;DHT22;33568;45.286;9.900;2023-04-03T03:20:04;12.20;78.10
47805;DHT22;33568;45.286;9.900;2023-04-03T03:22:30;12.10;78.20
47805;DHT22;33568;45.286;9.900;2023-04-03T03:24:58;12.10;78.10
47805;DHT22;33568;45.286;9.900;2023-04-03T03:27:24;12.10;78.00
47805;DHT22;33568;45.286;9.900;2023-04-03T03:29:51;11.90;79.40
47805;DHT22;33568;45.286;9.900;2023-04-03T03:32:18;11.90;78.20
47805;DHT22;33568;45.286;9.900;2023-04-03T03:34:44;11.80;78.20
47805;DHT22;33568;45.286;9.900;2023-04-03T03:37:11;11.80;78.40
47805;DHT22;33568;45.286;9.900;2023-04-03T03:39:38;11.70;78.60
47805;DHT22;33568;45.286;9.900;2023-04-03T03:42:04;11.70;78.80
47805;DHT22;33568;45.286;9.900;2023-04-03T03:44:31;11.70;79.00
47805;DHT22;33568;45.286;9.900;2023-04-03T03:46:58;11.60;79.00
47805;DHT22;33568;45.286;9.900;2023-04-03T03:49:24;11.60;79.20
47805;DHT22;33568;45.286;9.900;2023-04-03T03:51:51;11.60;79.20
47805;DHT22;33568;45.286;9.900;2023-04-03T03:54:18;11.60;79.30
47805;DHT22;33568;45.286;9.900;2023-04-03T03:56:44;11.60;79.50
47805;DHT22;33568;45.286;9.900;2023-04-03T03:59:11;11.50;79.60
47805;DHT22;33568;45.286;9.900;2023-04-03T04:01:38;11.50;81.10
47805;DHT22;33568;45.286;9.900;2023-04-03T04:04:04;11.50;79.90
47805;DHT22;33568;45.286;9.900;2023-04-03T04:06:31;11.40;81.80
47805;DHT22;33568;45.286;9.900;2023-04-03T04:09:03;11.40;80.30
47805;DHT22;33568;45.286;9.900;2023-04-03T04:11:30;11.40;80.40
47805;DHT22;33568;45.286;9.900;2023-04-03T04:13:58;11.30;80.70
47805;DHT22;33568;45.286;9.900;2023-04-03T04:16:28;11.40;80.90
47805;DHT22;33568;45.286;9.900;2023-04-03T04:18:56;11.40;81.00
47805;DHT22;33568;45.286;9.900;2023-04-03T04:21:24;11.40;81.00
47805;DHT22;33568;45.286;9.900;2023-04-03T04:23:52;11.40;81.10
47805;DHT22;33568;45.286;9.900;2023-04-03T04:26:20;11.40;81.10
47805;DHT22;33568;45.286;9.900;2023-04-03T04:28:46;11.30;80.70
47805;DHT22;33568;45.286;9.900;2023-04-03T04:31:13;11.30;80.70
47805;DHT22;33568;45.286;9.900;2023-04-03T04:33:40;11.20;80.70
47805;DHT22;33568;45.286;9.900;2023-04-03T04:36:10;11.20;80.90
47805;DHT22;33568;45.286;9.900;2023-04-03T04:38:37;11.20;81.00
47805;DHT22;33568;45.286;9.900;2023-04-03T04:41:05;11.10;81.20
47805;DHT22;33568;45.286;9.900;2023-04-03T04:43:31;11.00;81.00
47805;DHT22;33568;45.286;9.900;2023-04-03T04:46:07;10.90;80.90
47805;DHT22;33568;45.286;9.900;2023-04-03T04:48:38;10.90;81.10
47805;DHT22;33568;45.286;9.900;2023-04-03T04:51:07;10.80;81.90
47805;DHT22;33568;45.286;9.900;2023-04-03T04:53:36;10.80;81.40
47805;DHT22;33568;45.286;9.900;2023-04-03T04:56:03;10.70;81.40
47805;DHT22;33568;45.286;9.900;2023-04-03T04:58:31;10.70;81.70
47805;DHT22;33568;45.286;9.900;2023-04-03T05:01:00;10.60;81.90
47805;DHT22;33568;45.286;9.900;2023-04-03T05:03:27;10.60;81.70
47805;DHT22;33568;45.286;9.900;2023-04-03T05:05:54;10.60;81.90
47805;DHT22;33568;45.286;9.900;2023-04-03T05:08:21;10.50;81.80
47805;DHT22;33568;45.286;9.900;2023-04-03T05:10:47;10.50;81.80
47805;DHT22;33568;45.286;9.900;2023-04-03T05:13:16;10.50;82.00
47805;DHT22;33568;45.286;9.900;2023-04-03T05:15:44;10.50;82.20
47805;DHT22;33568;45.286;9.900;2023-04-03T05:18:10;10.50;82.50
47805;DHT22;33568;45.286;9.900;2023-04-03T05:20:37;10.50;82.70
47805;DHT22;33568;45.286;9.900;2023-04-03T05:23:04;10.50;82.80
47805;DHT22;33568;45.286;9.900;2023-04-03T05:25:34;10.50;82.90
47805;DHT22;33568;45.286;9.900;2023-04-03T05:28:01;10.50;83.00
47805;DHT22;33568;45.286;9.900;2023-04-03T05:30:27;10.50;83.20
47805;DHT22;33568;45.286;9.900;2023-04-03T05:32:54;10.50;83.40
47805;DHT22;33568;45.286;9.900;2023-04-03T05:35:31;10.60;83.60
47805;DHT22;33568;45.286;9.900;2023-04-03T05:38:00;10.60;85.60
47805;DHT22;33568;45.286;9.900;2023-04-03T05:40:27;10.70;83.60
47805;DHT22;33568;45.286;9.900;2023-04-03T05:42:56;10.80;83.70
47805;DHT22;33568;45.286;9.900;2023-04-03T05:45:24;10.70;84.00
47805;DHT22;33568;45.286;9.900;2023-04-03T05:47:51;10.80;84.50
47805;DHT22;33568;45.286;9.900;2023-04-03T05:50:19;10.90;84.60
47805;DHT22;33568;45.286;9.900;2023-04-03T05:52:52;11.10;84.70
47805;DHT22;33568;45.286;9.900;2023-04-03T05:55:19;11.20;84.60
47805;DHT22;33568;45.286;9.900;2023-04-03T05:57:46;11.30;84.50
47805;DHT22;33568;45.286;9.900;2023-04-03T06:00:14;11.40;84.40
47805;DHT22;33568;45.286;9.900;2023-04-03T06:02:52;11.50;84.20
47805;DHT22;33568;45.286;9.900;2023-04-03T06:05:22;11.70;84.20
47805;DHT22;33568;45.286;9.900;2023-04-03T06:07:50;11.80;84.00
47805;DHT22;33568;45.286;9.900;2023-04-03T06:10:17;11.90;83.90
47805;DHT22;33568;45.286;9.900;2023-04-03T06:12:44;12.00;83.70
47805;DHT22;33568;45.286;9.900;2023-04-03T06:15:11;12.10;83.80
47805;DHT22;33568;45.286;9.900;2023-04-03T06:17:40;12.00;84.20
47805;DHT22;33568;45.286;9.900;2023-04-03T06:20:08;12.20;83.70
47805;DHT22;33568;45.286;9.900;2023-04-03T06:22:35;12.30;83.40
47805;DHT22;33568;45.286;9.900;2023-04-03T06:25:02;12.30;83.10
47805;DHT22;33568;45.286;9.900;2023-04-03T06:27:29;12.30;83.20
47805;DHT22;33568;45.286;9.900;2023-04-03T06:29:56;12.40;83.30
47805;DHT22;33568;45.286;9.900;2023-04-03T06:32:22;12.40;83.40
47805;DHT22;33568;45.286;9.900;2023-04-03T06:34:49;12.30;84.40
47805;DHT22;33568;45.286;9.900;2023-04-03T06:37:22;12.40;83.60
47805;DHT22;33568;45.286;9.900;2023-04-03T06:39:49;12.50;83.70
47805;DHT22;33568;45.286;9.900;2023-04-03T06:42:15;12.50;83.70
47805;DHT22;33568;45.286;9.900;2023-04-03T06:44:55;12.50;85.60
47805;DHT22;33568;45.286;9.900;2023-04-03T06:47:22;12.70;84.10
47805;DHT22;33568;45.286;9.900;2023-04-03T06:49:48;12.80;83.80
47805;DHT22;33568;45.286;9.900;2023-04-03T06:52:15;12.90;83.60
47805;DHT22;33568;45.286;9.900;2023-04-03T06:54:41;13.10;83.50
47805;DHT22;33568;45.286;9.900;2023-04-03T06:57:08;13.20;83.30
47805;DHT22;33568;45.286;9.900;2023-04-03T06:59:35;13.30;83.10
47805;DHT22;33568;45.286;9.900;2023-04-03T07:02:03;13.40;82.90
47805;DHT22;33568;45.286;9.900;2023-04-03T07:04:29;13.50;82.70
47805;DHT22;33568;45.286;9.900;2023-04-03T07:06:56;13.60;82.50
47805;DHT22;33568;45.286;9.900;2023-04-03T07:09:22;13.60;83.00
47805;DHT22;33568;45.286;9.900;2023-04-03T07:11:48;13.80;82.40
47805;DHT22;33568;45.286;9.900;2023-04-03T07:14:15;13.80;82.70
47805;DHT22;33568;45.286;9.900;2023-04-03T07:16:41;14.00;81.90
47805;DHT22;33568;45.286;9.900;2023-04-03T07:19:08;14.10;81.60
47805;DHT22;33568;45.286;9.900;2023-04-03T07:21:35;14.30;81.40
47805;DHT22;33568;45.286;9.900;2023-04-03T07:24:01;14.40;80.80
47805;DHT22;33568;45.286;9.900;2023-04-03T07:26:27;14.40;80.10
47805;DHT22;33568;45.286;9.900;2023-04-03T07:28:54;14.60;80.40
47805;DHT22;33568;45.286;9.900;2023-04-03T07:31:20;14.60;78.60
47805;DHT22;33568;45.286;9.900;2023-04-03T07:33:47;14.70;79.50
47805;DHT22;33568;45.286;9.900;2023-04-03T07:36:17;14.70;79.00
47805;DHT22;33568;45.286;9.900;2023-04-03T07:38:43;14.80;78.80
47805;DHT22;33568;45.286;9.900;2023-04-03T07:41:13;14.90;78.70
47805;DHT22;33568;45.286;9.900;2023-04-03T07:43:41;15.00;78.60
47805;DHT22;33568;45.286;9.900;2023-04-03T07:46:08;15.10;78.60
47805;DHT22;33568;45.286;9.900;2023-04-03T07:48:35;15.20;78.50
47805;DHT22;33568;45.286;9.900;2023-04-03T07:51:03;15.40;78.20
47805;DHT22;33568;45.286;9.900;2023-04-03T07:53:30;15.40;78.00
47805;DHT22;33568;45.286;9.900;2023-04-03T07:55:58;15.60;77.80
47805;DHT22;33568;45.286;9.900;2023-04-03T07:58:25;15.70;77.50
47805;DHT22;33568;45.286;9.900;2023-04-03T08:00:52;15.80;77.10
47805;DHT22;33568;45.286;9.900;2023-04-03T08:03:18;15.80;76.80
47805;DHT22;33568;45.286;9.900;2023-04-03T08:05:47;15.90;76.60
47805;DHT22;33568;45.286;9.900;2023-04-03T08:08:20;16.00;76.20
47805;DHT22;33568;45.286;9.900;2023-04-03T08:10:51;16.10;75.40
47805;DHT22;33568;45.286;9.900;2023-04-03T08:13:19;16.20;74.70
47805;DHT22;33568;45.286;9.900;2023-04-03T08:15:46;16.40;74.70
47805;DHT22;33568;45.286;9.900;2023-04-03T08:18:14;16.60;74.10
47805;DHT22;33568;45.286;9.900;2023-04-03T08:20:41;16.70;73.50
47805;DHT22;33568;45.286;9.900;2023-04-03T08:23:08;16.70;73.00
47805;DHT22;33568;45.286;9.900;2023-04-03T08:25:39;16.80;72.80
47805;DHT22;33568;45.286;9.900;2023-04-03T08:28:07;17.00;72.10
47805;DHT22;33568;45.286;9.900;2023-04-03T08:30:34;17.10;72.20
47805;DHT22;33568;45.286;9.900;2023-04-03T08:33:02;17.30;72.00
47805;DHT22;33568;45.286;9.900;2023-04-03T08:35:29;17.50;71.60
47805;DHT22;33568;45.286;9.900;2023-04-03T08:37:55;17.70;71.00
47805;DHT22;33568;45.286;9.900;2023-04-03T08:40:23;17.80;70.80
47805;DHT22;33568;45.286;9.900;2023-04-03T08:45:42;18.10;69.90
47805;DHT22;33568;45.286;9.900;2023-04-03T08:50:56;18.50;69.20
47805;DHT22;33568;45.286;9.900;2023-04-03T08:53:29;18.60;68.70
47805;DHT22;33568;45.286;9.900;2023-04-03T08:56:02;18.70;68.20
47805;DHT22;33568;45.286;9.900;2023-04-03T08:58:36;18.80;67.60
47805;DHT22;33568;45.286;9.900;2023-04-03T09:03:43;19.10;66.50
47805;DHT22;33568;45.286;9.900;2023-04-03T09:06:16;19.40;66.40
47805;DHT22;33568;45.286;9.900;2023-04-03T09:16:56;19.60;63.70
47805;DHT22;33568;45.286;9.900;2023-04-03T09:22:20;20.00;61.10
47805;DHT22;33568;45.286;9.900;2023-04-03T09:27:28;19.80;60.80
47805;DHT22;33568;45.286;9.900;2023-04-03T09:29:56;20.00;61.00
47805;DHT22;33568;45.286;9.900;2023-04-03T09:34:54;20.10;60.00
47805;DHT22;33568;45.286;9.900;2023-04-03T09:37:45;20.10;59.80
47805;DHT22;33568;45.286;9.900;2023-04-03T09:40:33;19.90;58.00
47805;DHT22;33568;45.286;9.900;2023-04-03T09:43:26;19.80;59.00
47805;DHT22;33568;45.286;9.900;2023-04-03T09:45:53;20.10;59.20
47805;DHT22;33568;45.286;9.900;2023-04-03T09:48:25;20.40;59.30
47805;DHT22;33568;45.286;9.900;2023-04-03T09:51:02;20.70;58.50
47805;DHT22;33568;45.286;9.900;2023-04-03T09:53:35;20.70;57.30
47805;DHT22;33568;45.286;9.900;2023-04-03T09:59:07;20.90;57.80
47805;DHT22;33568;45.286;9.900;2023-04-03T10:01:37;20.90;57.80
47805;DHT22;33568;45.286;9.900;2023-04-03T10:04:38;20.80;57.30
47805;DHT22;33568;45.286;9.900;2023-04-03T10:10:10;21.00;56.10
47805;DHT22;33568;45.286;9.900;2023-04-03T10:12:41;20.90;56.20
47805;DHT22;33568;45.286;9.900;2023-04-03T10:15:15;20.30;57.20
47805;DHT22;33568;45.286;9.900;2023-04-03T10:17:57;19.90;58.10
47805;DHT22;33568;45.286;9.900;2023-04-03T10:23:21;20.50;57.60
47805;DHT22;33568;45.286;9.900;2023-04-03T10:26:05;20.70;56.80
47805;DHT22;33568;45.286;9.900;2023-04-03T10:36:56;21.50;55.20
47805;DHT22;33568;45.286;9.900;2023-04-03T10:42:15;21.50;54.20
47805;DHT22;33568;45.286;9.900;2023-04-03T10:48:11;22.20;53.50
47805;DHT22;33568;45.286;9.900;2023-04-03T10:51:10;22.40;51.40
47805;DHT22;33568;45.286;9.900;2023-04-03T10:53:43;22.50;52.00
47805;DHT22;33568;45.286;9.900;2023-04-03T10:56:31;22.50;53.20
47805;DHT22;33568;45.286;9.900;2023-04-03T11:01:42;22.00;51.70
47805;DHT22;33568;45.286;9.900;2023-04-03T11:04:11;21.90;52.30
47805;DHT22;33568;45.286;9.900;2023-04-03T11:09:28;21.60;52.50
47805;DHT22;33568;45.286;9.900;2023-04-03T11:12:02;21.80;53.00
47805;DHT22;33568;45.286;9.900;2023-04-03T11:14:32;22.20;52.60
47805;DHT22;33568;45.286;9.900;2023-04-03T11:20:03;22.20;51.90
47805;DHT22;33568;45.286;9.900;2023-04-03T11:22:41;22.00;53.40
47805;DHT22;33568;45.286;9.900;2023-04-03T11:30:28;21.50;53.70
47805;DHT22;33568;45.286;9.900;2023-04-03T11:35:52;21.60;53.80
47805;DHT22;33568;45.286;9.900;2023-04-03T11:38:36;21.80;54.30
47805;DHT22;33568;45.286;9.900;2023-04-03T11:41:07;21.80;53.90
47805;DHT22;33568;45.286;9.900;2023-04-03T11:43:40;21.70;54.20
47805;DHT22;33568;45.286;9.900;2023-04-03T11:46:09;21.60;53.80
47805;DHT22;33568;45.286;9.900;2023-04-03T11:53:54;21.60;54.50
47805;DHT22;33568;45.286;9.900;2023-04-03T11:56:41;21.40;54.90
47805;DHT22;33568;45.286;9.900;2023-04-03T12:01:48;21.20;54.90
47805;DHT22;33568;45.286;9.900;2023-04-03T12:04:17;21.00;55.10
47805;DHT22;33568;45.286;9.900;2023-04-03T12:09:34;20.90;54.80
47805;DHT22;33568;45.286;9.900;2023-04-03T12:14:48;21.50;53.70
47805;DHT22;33568;45.286;9.900;2023-04-03T12:17:25;21.70;53.80
47805;DHT22;33568;45.286;9.900;2023-04-03T12:19:53;21.40;52.90
47805;DHT22;33568;45.286;9.900;2023-04-03T12:22:20;20.80;53.80
47805;DHT22;33568;45.286;9.900;2023-04-03T12:24:50;20.40;53.90
47805;DHT22;33568;45.286;9.900;2023-04-03T12:27:27;20.10;54.00
47805;DHT22;33568;45.286;9.900;2023-04-03T12:30:12;20.50;54.30
47805;DHT22;33568;45.286;9.900;2023-04-03T12:35:31;21.00;53.10
47805;DHT22;33568;45.286;9.900;2023-04-03T12:38:38;20.70;52.00
47805;DHT22;33568;45.286;9.900;2023-04-03T12:41:28;20.50;52.50
47805;DHT22;33568;45.286;9.900;2023-04-03T12:46:45;20.80;52.30
47805;DHT22;33568;45.286;9.900;2023-04-03T12:49:38;21.20;52.30
47805;DHT22;33568;45.286;9.900;2023-04-03T12:54:51;21.60;51.00
47805;DHT22;33568;45.286;9.900;2023-04-03T12:59:47;21.60;50.40
47805;DHT22;33568;45.286;9.900;2023-04-03T13:04:47;21.10;50.50
47805;DHT22;33568;45.286;9.900;2023-04-03T13:07:29;20.80;51.10
47805;DHT22;33568;45.286;9.900;2023-04-03T13:10:01;20.50;51.10
47805;DHT22;33568;45.286;9.900;2023-04-03T13:12:28;20.20;51.70
47805;DHT22;33568;45.286;9.900;2023-04-03T13:14:57;20.10;51.80
47805;DHT22;33568;45.286;9.900;2023-04-03T13:17:25;20.00;51.90
47805;DHT22;33568;45.286;9.900;2023-04-03T13:19:51;20.20;51.90
47805;DHT22;33568;45.286;9.900;2023-04-03T13:22:33;20.10;51.80
47805;DHT22;33568;45.286;9.900;2023-04-03T13:25:06;20.20;52.00
47805;DHT22;33568;45.286;9.900;2023-04-03T13:27:34;20.50;52.00
47805;DHT22;33568;45.286;9.900;2023-04-03T13:30:03;20.60;51.50
47805;DHT22;33568;45.286;9.900;2023-04-03T13:32:30;20.60;51.20
47805;DHT22;33568;45.286;9.900;2023-04-03T13:34:57;20.80;50.90
47805;DHT22;33568;45.286;9.900;2023-04-03T13:37:32;20.80;50.60
47805;DHT22;33568;45.286;9.900;2023-04-03T13:40:19;20.80;50.30
47805;DHT22;33568;45.286;9.900;2023-04-03T13:43:02;20.80;49.30
47805;DHT22;33568;45.286;9.900;2023-04-03T13:45:31;20.50;49.80
47805;DHT22;33568;45.286;9.900;2023-04-03T13:48:19;20.40;50.50
47805;DHT22;33568;45.286;9.900;2023-04-03T13:50:56;20.40;50.00
47805;DHT22;33568;45.286;9.900;2023-04-03T13:53:24;20.20;50.40
47805;DHT22;33568;45.286;9.900;2023-04-03T13:56:16;20.10;50.30
47805;DHT22;33568;45.286;9.900;2023-04-03T13:58:55;19.90;50.40
47805;DHT22;33568;45.286;9.900;2023-04-03T14:01:24;19.90;50.60
47805;DHT22;33568;45.286;9.900;2023-04-03T14:03:59;20.10;50.80
47805;DHT22;33568;45.286;9.900;2023-04-03T14:06:27;20.20;50.80
47805;DHT22;33568;45.286;9.900;2023-04-03T14:08:53;20.40;50.40
47805;DHT22;33568;45.286;9.900;2023-04-03T14:11:29;20.50;50.40
47805;DHT22;33568;45.286;9.900;2023-04-03T14:14:01;20.40;48.80
47805;DHT22;33568;45.286;9.900;2023-04-03T14:16:33;20.10;49.90
47805;DHT22;33568;45.286;9.900;2023-04-03T14:19:03;20.20;50.20
47805;DHT22;33568;45.286;9.900;2023-04-03T14:21:29;20.20;50.20
47805;DHT22;33568;45.286;9.900;2023-04-03T14:23:56;20.20;50.10
47805;DHT22;33568;45.286;9.900;2023-04-03T14:26:24;20.30;50.10
47805;DHT22;33568;45.286;9.900;2023-04-03T14:28:54;20.40;49.90
47805;DHT22;33568;45.286;9.900;2023-04-03T14:31:21;20.40;49.70
47805;DHT22;33568;45.286;9.900;2023-04-03T14:33:48;20.30;49.60
47805;DHT22;33568;45.286;9.900;2023-04-03T14:36:21;20.30;49.80
47805;DHT22;33568;45.286;9.900;2023-04-03T14:38:49;20.30;49.70
47805;DHT22;33568;45.286;9.900;2023-04-03T14:41:18;20.30;49.60
47805;DHT22;33568;45.286;9.900;2023-04-03T14:43:46;20.20;49.90
47805;DHT22;33568;45.286;9.900;2023-04-03T14:46:18;20.20;49.80
47805;DHT22;33568;45.286;9.900;2023-04-03T14:48:45;20.10;49.50
47805;DHT22;33568;45.286;9.900;2023-04-03T14:51:13;20.00;49.80
47805;DHT22;33568;45.286;9.900;2023-04-03T14:53:42;19.80;49.60
47805;DHT22;33568;45.286;9.900;2023-04-03T14:56:16;19.60;49.60
47805;DHT22;33568;45.286;9.900;2023-04-03T14:58:43;19.40;49.80
47805;DHT22;33568;45.286;9.900;2023-04-03T15:01:11;19.30;50.00
47805;DHT22;33568;45.286;9.900;2023-04-03T15:03:38;19.30;50.20
47805;DHT22;33568;45.286;9.900;2023-04-03T15:06:04;19.40;50.30
47805;DHT22;33568;45.286;9.900;2023-04-03T15:08:31;19.50;50.90
47805;DHT22;33568;45.286;9.900;2023-04-03T15:10:58;19.60;50.30
47805;DHT22;33568;45.286;9.900;2023-04-03T15:13:25;19.70;50.00
47805;DHT22;33568;45.286;9.900;2023-04-03T15:15:52;19.60;50.00
47805;DHT22;33568;45.286;9.900;2023-04-03T15:18:24;19.60;50.00
47805;DHT22;33568;45.286;9.900;2023-04-03T15:20:55;19.60;50.10
47805;DHT22;33568;45.286;9.900;2023-04-03T15:23:22;19.60;49.90
47805;DHT22;33568;45.286;9.900;2023-04-03T15:25:53;19.60;49.90
47805;DHT22;33568;45.286;9.900;2023-04-03T15:28:38;19.50;49.50
47805;DHT22;33568;45.286;9.900;2023-04-03T15:31:05;19.30;49.30
47805;DHT22;33568;45.286;9.900;2023-04-03T15:33:33;19.30;49.70
47805;DHT22;33568;45.286;9.900;2023-04-03T15:36:01;19.40;49.60
47805;DHT22;33568;45.286;9.900;2023-04-03T15:38:27;19.40;49.60
47805;DHT22;33568;45.286;9.900;2023-04-03T15:40:55;19.40;49.60
47805;DHT22;33568;45.286;9.900;2023-04-03T15:43:22;19.40;49.60
47805;DHT22;33568;45.286;9.900;2023-04-03T15:45:49;19.30;49.50
47805;DHT22;33568;45.286;9.900;2023-04-03T15:48:17;19.10;49.50
47805;DHT22;33568;45.286;9.900;2023-04-03T15:50:44;18.90;49.80
47805;DHT22;33568;45.286;9.900;2023-04-03T15:53:10;18.90;50.00
47805;DHT22;33568;45.286;9.900;2023-04-03T15:55:38;18.80;50.10
47805;DHT22;33568;45.286;9.900;2023-04-03T15:58:05;18.80;50.10
47805;DHT22;33568;45.286;9.900;2023-04-03T16:00:32;18.70;50.20
47805;DHT22;33568;45.286;9.900;2023-04-03T16:03:05;18.60;50.20
47805;DHT22;33568;45.286;9.900;2023-04-03T16:05:32;18.50;50.50
47805;DHT22;33568;45.286;9.900;2023-04-03T16:08:00;18.40;50.70
47805;DHT22;33568;45.286;9.900;2023-04-03T16:10:27;18.40;50.90
47805;DHT22;33568;45.286;9.900;2023-04-03T16:12:54;18.30;50.90
47805;DHT22;33568;45.286;9.900;2023-04-03T16:15:20;18.10;51.00
47805;DHT22;33568;45.286;9.900;2023-04-03T16:17:47;17.90;51.10
47805;DHT22;33568;45.286;9.900;2023-04-03T16:20:14;17.70;51.40
47805;DHT22;33568;45.286;9.900;2023-04-03T16:22:41;17.60;51.50
47805;DHT22;33568;45.286;9.900;2023-04-03T16:25:09;17.50;51.70
47805;DHT22;33568;45.286;9.900;2023-04-03T16:27:36;17.50;51.90
47805;DHT22;33568;45.286;9.900;2023-04-03T16:30:03;17.40;51.90
47805;DHT22;33568;45.286;9.900;2023-04-03T16:32:30;17.30;52.00
47805;DHT22;33568;45.286;9.900;2023-04-03T16:34:58;17.30;52.10
47805;DHT22;33568;45.286;9.900;2023-04-03T16:37:24;17.20;52.10
47805;DHT22;33568;45.286;9.900;2023-04-03T16:39:51;17.20;52.20
47805;DHT22;33568;45.286;9.900;2023-04-03T16:42:18;17.10;52.30
47805;DHT22;33568;45.286;9.900;2023-04-03T16:44:44;17.10;52.40
47805;DHT22;33568;45.286;9.900;2023-04-03T16:47:10;17.00;52.50
47805;DHT22;33568;45.286;9.900;2023-04-03T16:49:38;16.80;52.60
47805;DHT22;33568;45.286;9.900;2023-04-03T16:52:05;16.80;52.70
47805;DHT22;33568;45.286;9.900;2023-04-03T16:54:32;16.80;52.70
47805;DHT22;33568;45.286;9.900;2023-04-03T16:56:58;16.80;52.80
47805;DHT22;33568;45.286;9.900;2023-04-03T16:59:25;16.80;52.90
47805;DHT22;33568;45.286;9.900;2023-04-03T17:01:52;16.70;53.00
47805;DHT22;33568;45.286;9.900;2023-04-03T17:04:18;16.70;53.20
47805;DHT22;33568;45.286;9.900;2023-04-03T17:06:45;16.60;53.60
47805;DHT22;33568;45.286;9.900;2023-04-03T17:09:11;16.70;53.50
47805;DHT22;33568;45.286;9.900;2023-04-03T17:11:37;16.70;53.60
47805;DHT22;33568;45.286;9.900;2023-04-03T17:14:04;16.60;54.10
47805;DHT22;33568;45.286;9.900;2023-04-03T17:16:33;16.50;53.70
47805;DHT22;33568;45.286;9.900;2023-04-03T17:19:00;16.50;53.80